createdAt,value
2018-07-07T00:00:23.053Z,76.21
2018-07-07T00:02:51.631Z,75.74
2018-07-07T00:05:20.220Z,76.09
2018-07-07T00:07:48.912Z,77.04
2018-07-07T00:10:17.808Z,76.23
2018-07-07T00:12:46.520Z,77.36
2018-07-07T00:15:17.508Z,77.24
2018-07-07T00:17:46.888Z,76.67
2018-07-07T00:20:16.200Z,76.64
2018-07-07T00:22:45.237Z,77.33
2018-07-07T00:25:16.048Z,76.88
2018-07-07T00:27:45.684Z,77.19
2018-07-07T00:30:14.384Z,77.12
2018-07-07T00:32:43.144Z,76.13
2018-07-07T00:35:11.813Z,76.34
2018-07-07T00:37:40.664Z,75.90
2018-07-07T00:40:10.100Z,77.33
2018-07-07T00:42:39.281Z,77.40
2018-07-07T00:45:08.008Z,76.02
2018-07-07T00:47:36.733Z,76.61
2018-07-07T00:50:06.306Z,77.09
2018-07-07T00:52:35.124Z,77.60
2018-07-07T00:55:04.641Z,77.35
2018-07-07T00:57:33.228Z,77.23
2018-07-07T01:00:01.859Z,76.92
2018-07-07T01:02:30.443Z,77.26
2018-07-07T01:04:59.001Z,78.06
2018-07-07T01:07:27.680Z,77.65
2018-07-07T01:09:56.231Z,78.16
2018-07-07T01:12:24.853Z,77.96
2018-07-07T01:14:53.404Z,77.77
2018-07-07T01:17:21.940Z,78.05
2018-07-07T01:19:57.008Z,78.47
2018-07-07T01:22:25.608Z,78.40
2018-07-07T01:24:54.240Z,77.90
2018-07-07T01:27:22.801Z,78.09
2018-07-07T01:29:51.404Z,78.90
2018-07-07T01:32:20.017Z,79.46
2018-07-07T01:34:48.600Z,79.64
2018-07-07T01:37:17.444Z,79.13
2018-07-07T01:39:46.092Z,79.39
2018-07-07T01:42:14.725Z,79.25
2018-07-07T01:44:43.298Z,79.52
2018-07-07T01:47:11.883Z,79.35
2018-07-07T01:49:40.520Z,80.39
2018-07-07T01:52:09.065Z,80.40
2018-07-07T01:54:37.680Z,80.19
2018-07-07T01:57:06.272Z,79.70
2018-07-07T01:59:35.012Z,80.25
2018-07-07T02:02:03.725Z,80.90
2018-07-07T02:04:32.372Z,81.33
2018-07-07T02:07:00.960Z,80.59
2018-07-07T02:09:29.592Z,80.17
2018-07-07T02:11:58.149Z,80.40
2018-07-07T02:14:26.712Z,80.43
2018-07-07T02:16:55.376Z,80.48
2018-07-07T02:19:23.993Z,80.01
2018-07-07T02:21:52.549Z,80.36
2018-07-07T02:24:21.108Z,79.95
2018-07-07T02:26:49.701Z,80.02
2018-07-07T02:29:18.355Z,79.35
2018-07-07T02:31:47.180Z,80.06
2018-07-07T02:34:15.799Z,80.44
2018-07-07T02:36:44.541Z,81.67
2018-07-07T02:39:13.180Z,80.88
2018-07-07T02:41:41.718Z,81.24
2018-07-07T02:44:10.373Z,80.93
2018-07-07T02:46:38.968Z,81.39
2018-07-07T02:49:07.624Z,80.44
2018-07-07T02:51:36.277Z,80.55
2018-07-07T02:54:04.809Z,78.83
2018-07-07T02:56:33.680Z,79.94
2018-07-07T02:59:02.229Z,80.48
2018-07-07T03:01:30.833Z,79.34
2018-07-07T03:03:59.421Z,79.69
2018-07-07T03:06:28.064Z,79.49
2018-07-07T03:08:56.852Z,79.65
2018-07-07T03:11:25.520Z,80.37
2018-07-07T03:13:54.161Z,81.87
2018-07-07T03:16:22.833Z,81.09
2018-07-07T03:18:51.408Z,82.65
2018-07-07T03:21:20.124Z,81.68
2018-07-07T03:23:48.684Z,81.47
2018-07-07T03:26:17.294Z,82.30
2018-07-07T03:28:46.024Z,82.29
2018-07-07T03:31:14.704Z,82.36
2018-07-07T03:33:43.521Z,82.90
2018-07-07T03:36:12.272Z,82.27
2018-07-07T03:38:40.896Z,81.95
2018-07-07T03:41:09.493Z,82.29
2018-07-07T03:43:38.060Z,83.45
2018-07-07T03:46:07.131Z,82.37
2018-07-07T03:48:35.900Z,82.07
2018-07-07T03:51:04.509Z,81.45
2018-07-07T03:53:33.218Z,80.87
2018-07-07T03:56:01.781Z,80.82
2018-07-07T03:58:30.440Z,80.65
2018-07-07T04:00:59.077Z,80.30
2018-07-07T04:03:27.648Z,79.37
2018-07-07T04:05:56.280Z,80.52
2018-07-07T04:08:24.884Z,80.69
2018-07-07T04:10:53.490Z,80.63
2018-07-07T04:13:22.204Z,80.69
2018-07-07T04:15:50.736Z,80.70
2018-07-07T04:18:31.384Z,80.06
2018-07-07T04:21:00.327Z,79.32
2018-07-07T04:23:29.004Z,79.36
2018-07-07T04:25:57.568Z,78.83
2018-07-07T04:28:26.436Z,79.15
2018-07-07T04:30:55.037Z,79.54
2018-07-07T04:33:23.609Z,78.82
2018-07-07T04:35:52.469Z,78.38
2018-07-07T04:38:21.119Z,77.82
2018-07-07T04:40:50.033Z,76.95
2018-07-07T04:43:19.273Z,77.46
2018-07-07T04:45:48.276Z,77.52
2018-07-07T04:48:17.189Z,77.50
2018-07-07T04:50:45.808Z,77.01
2018-07-07T04:53:14.461Z,77.29
2018-07-07T04:55:43.156Z,77.71
2018-07-07T04:58:11.848Z,77.56
2018-07-07T05:00:40.472Z,76.61
2018-07-07T05:03:10.140Z,77.46
2018-07-07T05:05:38.805Z,76.76
2018-07-07T05:08:07.357Z,75.98
2018-07-07T05:10:35.967Z,74.66
2018-07-07T05:13:04.622Z,73.42
2018-07-07T05:15:33.287Z,72.87
2018-07-07T05:18:01.792Z,73.50
2018-07-07T05:20:30.456Z,72.24
2018-07-07T05:22:59.028Z,70.95
2018-07-07T05:25:27.884Z,69.10
2018-07-07T05:27:56.548Z,69.68
2018-07-07T05:30:25.144Z,70.18
2018-07-07T05:32:53.864Z,69.76
2018-07-07T05:35:22.550Z,69.17
2018-07-07T05:37:51.157Z,67.93
2018-07-07T05:40:19.792Z,68.07
2018-07-07T05:42:48.400Z,68.97
2018-07-07T05:45:17.020Z,68.19
2018-07-07T05:47:45.632Z,67.72
2018-07-07T05:50:14.237Z,69.35
2018-07-07T05:52:42.812Z,68.93
2018-07-07T05:55:11.391Z,69.50
2018-07-07T05:57:40.009Z,69.20
2018-07-07T06:00:08.602Z,69.60
2018-07-07T06:02:37.224Z,69.23
2018-07-07T06:05:06.329Z,70.01
2018-07-07T06:07:35.000Z,70.02
2018-07-07T06:10:03.728Z,69.97
2018-07-07T06:12:32.252Z,67.50
2018-07-07T06:15:00.824Z,66.35
2018-07-07T06:17:29.371Z,65.98
2018-07-07T06:19:57.952Z,66.84
2018-07-07T06:22:26.620Z,65.67
2018-07-07T06:24:55.144Z,65.58
2018-07-07T06:27:23.935Z,62.92
2018-07-07T06:29:52.559Z,62.82
2018-07-07T06:32:21.173Z,63.68
2018-07-07T06:34:49.972Z,63.46
2018-07-07T06:37:18.622Z,62.89
2018-07-07T06:39:47.246Z,63.57
2018-07-07T06:42:15.801Z,63.88
2018-07-07T06:44:44.564Z,62.72
2018-07-07T06:47:13.311Z,62.69
2018-07-07T06:49:41.969Z,61.50
2018-07-07T06:52:10.584Z,62.00
2018-07-07T06:54:39.128Z,60.50
2018-07-07T06:57:07.668Z,60.28
2018-07-07T06:59:36.312Z,61.04
2018-07-07T07:02:05.056Z,59.95
2018-07-07T07:04:33.928Z,60.24
2018-07-07T07:07:02.547Z,60.73
2018-07-07T07:09:31.248Z,59.19
2018-07-07T07:11:59.942Z,58.96
2018-07-07T07:14:28.589Z,59.34
2018-07-07T07:16:57.265Z,59.86
2018-07-07T07:19:25.920Z,59.94
2018-07-07T07:21:54.529Z,58.20
2018-07-07T07:24:23.189Z,56.42
2018-07-07T07:26:53.763Z,53.25
2018-07-07T07:29:23.530Z,44.63
2018-07-07T07:31:52.180Z,46.18
2018-07-07T07:34:20.737Z,46.76
2018-07-07T07:36:49.433Z,45.28
2018-07-07T07:39:18.089Z,45.89
2018-07-07T07:41:46.924Z,45.17
2018-07-07T07:44:16.146Z,45.14
2018-07-07T07:46:44.940Z,44.38
2018-07-07T07:49:13.614Z,43.84
2018-07-07T07:51:42.172Z,43.56
2018-07-07T07:54:10.912Z,44.38
2018-07-07T07:56:39.476Z,44.17
2018-07-07T07:59:08.056Z,43.67
2018-07-07T08:01:36.617Z,44.09
2018-07-07T08:04:05.188Z,42.92
2018-07-07T08:06:34.012Z,42.88
2018-07-07T08:09:02.584Z,42.87
2018-07-07T08:11:31.144Z,42.57
2018-07-07T08:13:59.764Z,42.40
2018-07-07T08:16:28.308Z,41.82
2018-07-07T08:18:56.976Z,42.62
2018-07-07T08:21:25.495Z,42.91
2018-07-07T08:23:54.148Z,41.89
2018-07-07T08:26:22.897Z,44.09
2018-07-07T08:28:51.432Z,43.43
2018-07-07T08:31:20.472Z,43.14
2018-07-07T08:33:49.128Z,43.34
2018-07-07T08:36:17.721Z,41.93
2018-07-07T08:38:46.266Z,43.20
2018-07-07T08:41:15.448Z,42.13
2018-07-07T08:43:44.048Z,43.81
2018-07-07T08:46:12.676Z,42.40
2018-07-07T08:48:41.256Z,43.91
2018-07-07T08:51:09.962Z,43.31
2018-07-07T08:53:38.548Z,43.25
2018-07-07T08:56:07.121Z,42.72
2018-07-07T08:58:35.651Z,41.81
2018-07-07T09:01:04.213Z,43.13
2018-07-07T09:03:32.820Z,40.84
2018-07-07T09:06:01.393Z,43.79
2018-07-07T09:08:30.184Z,41.38
2018-07-07T09:10:58.824Z,40.59
2018-07-07T09:13:27.376Z,41.42
2018-07-07T09:15:56.029Z,42.10
2018-07-07T09:18:24.609Z,42.27
2018-07-07T09:20:53.196Z,41.45
2018-07-07T09:23:21.800Z,42.37
2018-07-07T09:25:50.360Z,42.68
2018-07-07T09:28:18.931Z,42.18
2018-07-07T09:30:47.564Z,41.76
2018-07-07T09:33:16.096Z,42.41
2018-07-07T09:35:44.672Z,41.75
2018-07-07T09:38:13.264Z,41.05
2018-07-07T09:40:41.842Z,41.44
2018-07-07T09:43:10.460Z,42.09
2018-07-07T09:45:39.288Z,38.79
2018-07-07T09:48:08.047Z,40.25
2018-07-07T09:50:36.643Z,38.84
2018-07-07T09:53:05.484Z,42.03
2018-07-07T09:55:34.061Z,40.72
2018-07-07T09:58:02.940Z,40.71
2018-07-07T10:00:36.849Z,40.03
2018-07-07T10:03:05.706Z,39.84
2018-07-07T10:05:34.352Z,40.62
2018-07-07T10:08:03.012Z,41.66
2018-07-07T10:10:32.062Z,40.77
2018-07-07T10:13:00.653Z,39.18
2018-07-07T10:15:29.406Z,40.52
2018-07-07T10:17:58.028Z,39.74
2018-07-07T10:20:27.084Z,40.09
2018-07-07T10:22:56.007Z,39.22
2018-07-07T10:25:24.588Z,40.75
2018-07-07T10:27:53.363Z,40.22
2018-07-07T10:30:21.969Z,41.00
2018-07-07T10:32:50.581Z,40.40
2018-07-07T10:35:19.321Z,39.43
2018-07-07T10:37:47.956Z,39.10
2018-07-07T10:40:16.603Z,38.42
2018-07-07T10:42:45.272Z,37.99
2018-07-07T10:45:13.965Z,38.65
2018-07-07T10:47:42.580Z,36.49
2018-07-07T10:50:11.252Z,37.48
2018-07-07T10:52:40.103Z,38.10
2018-07-07T10:55:08.652Z,37.28
2018-07-07T10:57:37.232Z,37.33
2018-07-07T11:00:06.804Z,37.93
2018-07-07T11:02:35.487Z,39.09
2018-07-07T11:05:04.219Z,38.56
2018-07-07T11:07:32.966Z,38.86
2018-07-07T11:10:01.550Z,37.72
2018-07-07T11:12:30.118Z,38.52
2018-07-07T11:14:58.751Z,38.79
2018-07-07T11:17:27.402Z,39.94
2018-07-07T11:19:56.291Z,41.06
2018-07-07T11:22:24.796Z,39.87
2018-07-07T11:24:53.906Z,38.82
2018-07-07T11:27:22.440Z,37.65
2018-07-07T11:29:51.130Z,39.13
2018-07-07T11:32:19.640Z,37.06
2018-07-07T11:34:48.248Z,38.03
2018-07-07T11:37:16.864Z,37.68
2018-07-07T11:39:45.928Z,38.17
2018-07-07T11:42:15.019Z,37.07
2018-07-07T11:44:43.540Z,39.13
2018-07-07T11:47:12.148Z,37.48
2018-07-07T11:49:40.752Z,37.64
2018-07-07T11:52:09.561Z,38.73
2018-07-07T11:54:38.264Z,37.92
2018-07-07T11:57:06.949Z,38.92
2018-07-07T11:59:35.472Z,40.12
2018-07-07T12:02:04.152Z,38.61
2018-07-07T12:04:32.799Z,40.06
2018-07-07T12:07:01.576Z,38.48
2018-07-07T12:09:30.249Z,38.78
2018-07-07T12:11:58.940Z,38.28
2018-07-07T12:14:27.585Z,38.60
2018-07-07T12:16:56.258Z,38.82
2018-07-07T12:19:25.331Z,39.91
2018-07-07T12:21:54.040Z,39.62
2018-07-07T12:24:22.581Z,37.98
2018-07-07T12:26:51.185Z,38.00
2018-07-07T12:29:19.992Z,37.05
2018-07-07T12:31:48.684Z,36.79
2018-07-07T12:34:17.222Z,37.96
2018-07-07T12:36:45.845Z,39.07
2018-07-07T12:39:14.460Z,38.47
2018-07-07T12:41:43.092Z,38.81
2018-07-07T12:44:11.970Z,37.06
2018-07-07T12:46:40.616Z,37.55
2018-07-07T12:49:09.740Z,38.04
2018-07-07T12:51:38.382Z,36.47
2018-07-07T12:54:07.029Z,37.16
2018-07-07T12:56:35.963Z,37.67
2018-07-07T12:59:04.560Z,37.43
2018-07-07T13:01:33.325Z,38.29
2018-07-07T13:04:01.935Z,37.18
2018-07-07T13:06:30.544Z,35.29
2018-07-07T13:08:59.445Z,35.82
2018-07-07T13:11:28.104Z,35.19
2018-07-07T13:13:56.731Z,35.95
2018-07-07T13:16:25.340Z,34.73
2018-07-07T13:18:53.946Z,35.55
2018-07-07T13:21:22.719Z,33.63
2018-07-07T13:23:51.349Z,34.78
2018-07-07T13:26:20.063Z,37.15
2018-07-07T13:28:48.705Z,35.06
2018-07-07T13:31:17.260Z,34.76
2018-07-07T13:33:46.049Z,35.28
2018-07-07T13:36:14.592Z,34.73
2018-07-07T13:38:43.283Z,34.87
2018-07-07T13:41:11.800Z,34.54
2018-07-07T13:43:40.500Z,35.50
2018-07-07T13:46:09.413Z,35.78
2018-07-07T13:48:38.018Z,35.08
2018-07-07T13:51:06.742Z,35.33
2018-07-07T13:53:35.484Z,34.25
2018-07-07T13:56:04.120Z,34.68
2018-07-07T13:58:33.059Z,34.42
2018-07-07T14:01:01.657Z,34.01
2018-07-07T14:03:30.172Z,34.64
2018-07-07T14:05:58.768Z,34.39
2018-07-07T14:08:27.578Z,35.19
2018-07-07T14:10:56.212Z,35.69
2018-07-07T14:13:24.844Z,34.45
2018-07-07T14:15:53.442Z,34.98
2018-07-07T14:18:22.104Z,34.33
2018-07-07T14:20:50.680Z,35.01
2018-07-07T14:23:19.697Z,34.41
2018-07-07T14:25:48.360Z,36.19
2018-07-07T14:28:16.936Z,35.58
2018-07-07T14:30:45.588Z,36.52
2018-07-07T14:33:14.260Z,35.83
2018-07-07T14:35:42.984Z,35.87
2018-07-07T14:38:11.624Z,36.23
2018-07-07T14:41:23.386Z,35.09
2018-07-07T14:43:59.022Z,35.84
2018-07-07T14:46:28.068Z,35.11
2018-07-07T14:48:56.712Z,34.70
2018-07-07T14:51:25.300Z,35.72
2018-07-07T14:53:54.059Z,35.48
2018-07-07T14:56:24.044Z,36.29
2018-07-07T14:58:52.900Z,36.95
2018-07-07T15:01:21.449Z,36.37
2018-07-07T15:03:50.132Z,35.66
2018-07-07T15:06:18.739Z,36.40
2018-07-07T15:08:47.417Z,36.22
2018-07-07T15:11:16.076Z,36.69
2018-07-07T15:13:47.196Z,36.04
2018-07-07T15:16:15.828Z,36.89
2018-07-07T15:18:45.124Z,35.72
2018-07-07T15:21:13.692Z,35.80
2018-07-07T15:23:42.329Z,35.77
2018-07-07T15:26:10.908Z,35.48
2018-07-07T15:28:39.568Z,35.18
2018-07-07T15:31:08.196Z,35.95
2018-07-07T15:33:36.772Z,34.78
2018-07-07T15:36:05.489Z,34.15
2018-07-07T15:38:34.014Z,35.65
2018-07-07T15:41:02.820Z,34.53
2018-07-07T15:43:31.340Z,34.90
2018-07-07T15:45:59.974Z,35.86
2018-07-07T15:48:28.605Z,35.60
2018-07-07T15:50:57.286Z,35.61
2018-07-07T15:53:26.130Z,34.45
2018-07-07T15:55:54.658Z,34.29
2018-07-07T15:58:23.197Z,34.04
2018-07-07T16:00:51.942Z,33.66
2018-07-07T16:03:20.618Z,34.26
2018-07-07T16:05:49.396Z,34.47
2018-07-07T16:08:18.064Z,32.82
2018-07-07T16:10:46.690Z,33.51
2018-07-07T16:13:15.301Z,33.88
2018-07-07T16:15:43.988Z,33.62
2018-07-07T16:18:12.681Z,34.71
2018-07-07T16:20:41.232Z,33.42
2018-07-07T16:23:09.903Z,34.62
2018-07-07T16:25:38.557Z,34.65
2018-07-07T16:28:07.216Z,34.12
2018-07-07T16:30:35.804Z,34.43
2018-07-07T16:33:04.476Z,33.67
2018-07-07T16:35:33.132Z,32.13
2018-07-07T16:38:01.971Z,33.04
2018-07-07T16:40:30.571Z,31.77
2018-07-07T16:43:00.474Z,31.76
2018-07-07T16:45:29.161Z,31.69
2018-07-07T16:47:57.760Z,31.73
2018-07-07T16:50:26.428Z,32.36
2018-07-07T16:52:55.064Z,32.35
2018-07-07T16:55:23.959Z,31.60
2018-07-07T16:57:52.587Z,32.14
2018-07-07T17:00:21.315Z,31.47
2018-07-07T17:02:50.844Z,31.97
2018-07-07T17:05:19.464Z,31.17
2018-07-07T17:07:48.612Z,32.33
2018-07-07T17:10:17.892Z,32.18
2018-07-07T17:12:46.900Z,31.78
2018-07-07T17:15:15.536Z,33.07
2018-07-07T17:17:44.228Z,31.89
2018-07-07T17:20:12.952Z,32.18
2018-07-07T17:22:41.656Z,32.73
2018-07-07T17:25:10.866Z,31.54
2018-07-07T17:27:40.068Z,31.59
2018-07-07T17:30:08.832Z,31.44
2018-07-07T17:32:37.472Z,31.83
2018-07-07T17:35:06.373Z,31.15
2018-07-07T17:37:35.200Z,32.39
2018-07-07T17:40:03.857Z,32.04
2018-07-07T17:42:32.845Z,31.71
2018-07-07T17:45:02.469Z,32.23
2018-07-07T17:47:31.148Z,32.46
2018-07-07T17:50:02.057Z,32.04
2018-07-07T17:52:32.021Z,31.87
2018-07-07T17:55:01.574Z,31.66
2018-07-07T17:57:30.180Z,32.57
2018-07-07T17:59:58.840Z,31.91
2018-07-07T18:02:27.797Z,32.74
2018-07-07T18:04:56.637Z,32.97
2018-07-07T18:07:25.583Z,32.79
2018-07-07T18:09:54.396Z,33.44
2018-07-07T18:12:23.149Z,33.60
2018-07-07T18:14:51.722Z,33.20
2018-07-07T18:17:20.372Z,33.75
2018-07-07T18:19:48.908Z,32.75
2018-07-07T18:22:17.552Z,33.66
2018-07-07T18:24:46.112Z,33.26
2018-07-07T18:27:14.756Z,33.77
2018-07-07T18:29:43.304Z,33.75
2018-07-07T18:32:11.868Z,34.47
2018-07-07T18:34:40.452Z,33.99
2018-07-07T18:37:09.056Z,34.10
2018-07-07T18:39:37.757Z,34.99
2018-07-07T18:42:06.632Z,34.44
2018-07-07T18:44:35.284Z,35.59
2018-07-07T18:47:03.896Z,35.96
2018-07-07T18:49:32.542Z,35.99
2018-07-07T18:52:01.302Z,35.34
2018-07-07T18:54:29.905Z,35.92
2018-07-07T18:56:58.652Z,36.56
2018-07-07T18:59:27.418Z,36.94
2018-07-07T19:01:56.134Z,37.11
2018-07-07T19:04:24.738Z,36.39
2018-07-07T19:06:53.297Z,37.90
2018-07-07T19:09:21.876Z,37.27
2018-07-07T19:11:50.584Z,38.77
2018-07-07T19:14:19.215Z,39.29
2018-07-07T19:16:48.009Z,38.39
2018-07-07T19:19:16.644Z,39.92
2018-07-07T19:21:50.367Z,39.89
2018-07-07T19:24:24.164Z,39.99
2018-07-07T19:26:53.992Z,40.92
2018-07-07T19:29:23.605Z,41.43
2018-07-07T19:31:57.516Z,42.41
2018-07-07T19:34:31.484Z,41.90
2018-07-07T19:37:05.405Z,43.09
2018-07-07T19:39:34.004Z,43.70
2018-07-07T19:42:02.857Z,43.28
2018-07-07T19:44:31.436Z,43.09
2018-07-07T19:47:00.022Z,44.45
2018-07-07T19:49:28.650Z,43.72
2018-07-07T19:51:57.300Z,43.71
2018-07-07T19:54:25.901Z,44.27
2018-07-07T19:56:54.488Z,44.81
2018-07-07T19:59:23.036Z,43.67
2018-07-07T20:01:51.704Z,44.38
2018-07-07T20:04:20.236Z,44.98
2018-07-07T20:06:48.889Z,46.36
2018-07-07T20:09:17.805Z,45.55
2018-07-07T20:11:46.697Z,46.70
2018-07-07T20:14:21.072Z,48.04
2018-07-07T20:17:08.757Z,48.27
2018-07-07T20:19:53.996Z,48.56
2018-07-07T20:22:22.573Z,49.26
2018-07-07T20:24:51.160Z,49.81
2018-07-07T20:27:24.897Z,50.35
2018-07-07T20:29:53.532Z,50.03
2018-07-07T20:32:27.256Z,50.66
2018-07-07T20:34:55.913Z,51.17
2018-07-07T20:37:24.450Z,50.36
2018-07-07T20:39:53.069Z,50.86
2018-07-07T20:42:21.729Z,51.55
2018-07-07T20:44:50.311Z,51.02
2018-07-07T20:47:19.264Z,51.60
2018-07-07T20:49:47.901Z,51.21
2018-07-07T20:52:16.576Z,51.82
2018-07-07T20:54:45.180Z,50.90
2018-07-07T20:57:13.754Z,48.28
2018-07-07T20:59:42.604Z,49.63
2018-07-07T21:02:11.144Z,50.32
2018-07-07T21:04:39.712Z,52.20
2018-07-07T21:07:08.248Z,51.65
2018-07-07T21:09:36.864Z,52.24
2018-07-07T21:12:05.503Z,51.58
2018-07-07T21:14:34.128Z,52.15
2018-07-07T21:17:02.696Z,51.93
2018-07-07T21:19:31.348Z,52.22
2018-07-07T21:22:00.073Z,52.93
2018-07-07T21:24:28.644Z,54.69
2018-07-07T21:26:57.227Z,54.87
2018-07-07T21:29:25.904Z,54.50
2018-07-07T21:31:54.496Z,54.50
2018-07-07T21:34:23.136Z,55.90
2018-07-07T21:36:51.825Z,56.57
2018-07-07T21:39:20.829Z,56.16
2018-07-07T21:41:49.369Z,55.99
2018-07-07T21:44:18.082Z,56.80
2018-07-07T21:46:46.692Z,56.88
2018-07-07T21:49:15.293Z,57.18
2018-07-07T21:51:43.908Z,58.20
2018-07-07T21:54:12.488Z,57.57
2018-07-07T21:56:41.115Z,57.93
2018-07-07T21:59:14.992Z,59.01
2018-07-07T22:01:56.140Z,59.32
2018-07-07T22:04:30.762Z,60.49
2018-07-07T22:07:05.004Z,60.09
2018-07-07T22:09:34.604Z,59.18
2018-07-07T22:12:03.641Z,59.45
2018-07-07T22:14:32.618Z,60.43
2018-07-07T22:17:01.189Z,61.59
2018-07-07T22:19:29.788Z,60.85
2018-07-07T22:22:05.533Z,60.80
2018-07-07T22:24:34.435Z,60.69
2018-07-07T22:27:05.053Z,60.89
2018-07-07T22:29:34.069Z,60.98
2018-07-07T22:32:03.970Z,60.80
2018-07-07T22:34:33.918Z,61.57
2018-07-07T22:37:02.625Z,61.46
2018-07-07T22:39:34.728Z,61.85
2018-07-07T22:42:04.504Z,61.99
2018-07-07T22:44:34.029Z,63.06
2018-07-07T22:47:02.745Z,62.68
2018-07-07T22:49:31.890Z,63.11
2018-07-07T22:52:00.556Z,64.79
2018-07-07T22:54:29.162Z,64.44
2018-07-07T22:56:58.046Z,64.26
2018-07-07T22:59:26.597Z,64.39
2018-07-07T23:01:55.246Z,66.05
2018-07-07T23:04:23.938Z,65.19
2018-07-07T23:06:52.580Z,66.39
2018-07-07T23:09:21.274Z,65.96
2018-07-07T23:11:49.936Z,65.79
2018-07-07T23:14:18.734Z,66.47
2018-07-07T23:16:47.313Z,66.77
2018-07-07T23:19:32.442Z,67.51
2018-07-07T23:22:17.493Z,66.72
2018-07-07T23:24:46.037Z,67.85
2018-07-07T23:27:14.628Z,67.06
2018-07-07T23:29:43.509Z,66.98
2018-07-07T23:32:12.156Z,67.81
2018-07-07T23:34:40.732Z,67.00
2018-07-07T23:37:09.380Z,68.21
2018-07-07T23:39:38.000Z,68.03
2018-07-07T23:42:06.593Z,68.14
2018-07-07T23:44:35.280Z,67.69
2018-07-07T23:47:03.893Z,68.83
2018-07-07T23:49:32.452Z,68.07
2018-07-07T23:52:01.584Z,68.95
2018-07-07T23:54:30.221Z,68.80
2018-07-07T23:56:58.828Z,68.96
2018-07-07T23:59:27.448Z,69.90
